Time;durP1;ratioP1;P1;durP2;ratioP2;P2;SDS_P1;SDS_P2;PMS_P1;PMS_P2;Temp;Humidity;BMP_temperature;BMP_pressure;BME280_temperature;BME280_humidity;BME280_pressure;Samples;Min_cycle;Max_cycle;Signal;HPM_P1;HPM_P2
2021/03/26 00:01:50;;;;;;;30.33;18.52;;;8.70;74.60;;;;;;5071503;28;20032;-68
2021/03/26 00:04:16;;;;;;;34.38;19.80;;;8.80;74.70;;;;;;5071104;28;20494;-67
2021/03/26 00:06:43;;;;;;;30.20;17.15;;;8.80;74.90;;;;;;5070760;28;20035;-67
2021/03/26 00:09:15;;;;;;;34.63;17.63;;;9.00;74.30;;;;;;5072118;28;20024;-67
2021/03/26 00:11:40;;;;;;;;;;;8.90;74.50;;;;;;5072387;28;20530;-67
2021/03/26 00:14:06;;;;;;;30.50;17.60;;;8.80;74.60;;;;;;5071904;28;20004;-67
2021/03/26 00:16:32;;;;;;;33.25;19.75;;;8.70;74.70;;;;;;5071819;28;20028;-68
2021/03/26 00:18:57;;;;;;;33.15;18.98;;;8.70;75.00;;;;;;5071937;28;20436;-68
2021/03/26 00:21:24;;;;;;;33.58;19.63;;;8.70;75.50;;;;;;5070868;28;20024;-67
2021/03/26 00:23:50;;;;;;;35.72;19.33;;;8.60;75.20;;;;;;5072052;28;20378;-67
2021/03/26 00:26:16;;;;;;;37.88;19.67;;;8.50;75.30;;;;;;5070317;28;20020;-67
2021/03/26 00:28:42;;;;;;;30.95;17.98;;;8.40;75.80;;;;;;5071775;28;20087;-67
2021/03/26 00:31:10;;;;;;;27.17;16.73;;;8.40;75.60;;;;;;5071864;28;20024;-67
2021/03/26 00:33:36;;;;;;;30.35;17.98;;;8.40;75.30;;;;;;5070303;28;20040;-67
2021/03/26 00:36:03;;;;;;;36.13;18.17;;;8.30;75.60;;;;;;5071447;28;20024;-66
2021/03/26 00:38:28;;;;;;;31.42;17.40;;;8.20;75.90;;;;;;5071685;28;20043;-67
2021/03/26 00:40:54;;;;;;;29.45;18.15;;;8.10;75.80;;;;;;5071772;28;20478;-67
2021/03/26 00:43:21;;;;;;;31.48;18.40;;;8.00;76.20;;;;;;5071587;28;20490;-67
2021/03/26 00:45:47;;;;;;;25.77;16.85;;;7.90;76.40;;;;;;5071634;28;20025;-67
2021/03/26 00:48:13;;;;;;;29.63;15.98;;;7.70;76.70;;;;;;5071374;28;20474;-67
2021/03/26 00:50:41;;;;;;;29.60;17.83;;;7.60;77.10;;;;;;5071382;28;20526;-67
2021/03/26 00:53:12;;;;;;;34.50;18.40;;;7.50;77.60;;;;;;5069983;28;20052;-67
2021/03/26 00:55:38;;;;;;;29.95;17.60;;;7.50;77.50;;;;;;5071432;28;20050;-67
2021/03/26 00:58:04;;;;;;;29.30;17.45;;;7.70;77.30;;;;;;5071240;28;20111;-67
2021/03/26 01:00:31;;;;;;;30.85;17.48;;;7.60;77.20;;;;;;5070116;28;20020;-67
2021/03/26 01:02:57;;;;;;;33.58;19.77;;;7.50;77.60;;;;;;5071433;28;20412;-67
2021/03/26 01:05:28;;;;;;;33.38;19.58;;;7.50;78.20;;;;;;5054801;28;20027;-67
2021/03/26 01:07:57;;;;;;;31.77;18.48;;;7.40;78.20;;;;;;5072322;28;20112;-67
2021/03/26 01:10:26;;;;;;;29.60;18.13;;;7.40;78.20;;;;;;5075508;28;20099;-67
2021/03/26 01:12:52;;;;;;;31.63;18.50;;;7.30;78.40;;;;;;5075319;28;20086;-67
2021/03/26 01:15:21;;;;;;;38.33;20.15;;;7.20;78.10;;;;;;5075220;28;20021;-67
2021/03/26 01:17:49;;;;;;;29.13;17.80;;;7.30;78.30;;;;;;5074898;28;20021;-67
2021/03/26 01:20:21;;;;;;;30.17;18.88;;;7.20;78.00;;;;;;5073880;28;20492;-67
2021/03/26 01:22:47;;;;;;;32.72;18.98;;;7.10;78.40;;;;;;5075270;28;20028;-67
2021/03/26 01:25:31;;;;;;;33.35;16.33;;;7.00;78.60;;;;;;5073713;28;20028;-67
2021/03/26 01:27:57;;;;;;;31.60;17.50;;;7.00;78.70;;;;;;5074829;28;20034;-67
2021/03/26 01:30:24;;;;;;;34.95;18.02;;;6.90;78.80;;;;;;5075115;28;20391;-67
2021/03/26 01:32:51;;;;;;;32.85;17.42;;;6.80;79.00;;;;;;5075448;28;20413;-67
2021/03/26 01:35:18;;;;;;;32.97;17.52;;;6.70;78.80;;;;;;5098261;22;20048;-70
2021/03/26 01:37:44;;;;;;;30.65;16.88;;;6.60;79.40;;;;;;5074348;28;20029;-69
2021/03/26 01:40:14;;;;;;;29.75;16.35;;;6.70;79.50;;;;;;5075125;28;20013;-69
2021/03/26 01:42:40;;;;;;;29.98;17.35;;;6.60;78.90;;;;;;5075154;28;20081;-70
2021/03/26 01:45:15;;;;;;;30.55;16.27;;;6.50;79.40;;;;;;5076189;28;20028;-68
2021/03/26 01:47:41;;;;;;;32.42;17.58;;;6.40;79.60;;;;;;5075619;28;20059;-69
2021/03/26 01:50:12;;;;;;;33.45;18.23;;;6.40;79.80;;;;;;5075213;28;20375;-69
2021/03/26 01:52:37;;;;;;;36.78;18.42;;;6.20;79.90;;;;;;5075190;28;20024;-69
2021/03/26 01:55:07;;;;;;;36.85;19.02;;;6.10;80.70;;;;;;5074032;28;20083;-69
2021/03/26 01:57:33;;;;;;;32.50;16.98;;;6.20;80.80;;;;;;5076917;28;20021;-69
2021/03/26 01:59:59;;;;;;;32.40;18.27;;;6.20;80.60;;;;;;5077843;28;20036;-69
2021/03/26 02:02:25;;;;;;;34.88;19.08;;;6.10;80.40;;;;;;5077156;28;20372;-68
2021/03/26 02:04:51;;;;;;;32.85;17.73;;;6.30;80.80;;;;;;5075761;28;20048;-69
2021/03/26 02:07:21;;;;;;;32.47;17.55;;;6.20;80.60;;;;;;5074239;28;20028;-68
2021/03/26 02:09:48;;;;;;;33.35;18.52;;;6.10;80.40;;;;;;5074610;28;20257;-69
2021/03/26 02:12:22;;;;;;;35.42;18.33;;;6.00;80.60;;;;;;5074235;28;20031;-68
2021/03/26 02:14:56;;;;;;;35.70;18.38;;;6.00;81.30;;;;;;5074258;28;20020;-68
2021/03/26 02:17:25;;;;;;;32.53;18.98;;;5.90;81.20;;;;;;5074407;28;20017;-69
2021/03/26 02:20:05;;;;;;;36.85;19.48;;;5.90;81.00;;;;;;5076056;28;20024;-68
2021/03/26 02:22:32;;;;;;;32.33;17.85;;;5.90;81.40;;;;;;5075484;28;20382;-69
2021/03/26 02:24:58;;;;;;;30.63;18.15;;;5.90;81.70;;;;;;5075967;28;20025;-69
2021/03/26 02:27:29;;;;;;;32.40;18.20;;;5.80;81.40;;;;;;5073939;28;20032;-69
2021/03/26 02:29:55;;;;;;;31.17;17.33;;;5.80;81.30;;;;;;5072927;28;20439;-69
2021/03/26 02:32:32;;;;;;;32.33;18.23;;;5.70;81.40;;;;;;5073977;28;20031;-69
2021/03/26 02:35:18;;;;;;;33.38;18.55;;;5.70;81.60;;;;;;5073416;28;20028;-69
2021/03/26 02:38:07;;;;;;;30.92;18.40;;;5.70;81.90;;;;;;5073670;28;20017;-69
2021/03/26 02:40:49;;;;;;;32.80;17.52;;;5.80;81.70;;;;;;5073778;28;20028;-68
2021/03/26 02:43:58;;;;;;;31.23;17.23;;;5.70;81.10;;;;;;5072430;28;20078;-68
2021/03/26 02:46:42;;;;;;;31.63;18.33;;;5.60;81.50;;;;;;5072855;28;20041;-69
2021/03/26 02:49:25;;;;;;;30.27;17.25;;;5.50;81.50;;;;;;5072164;28;20513;-70
2021/03/26 02:52:29;;;;;;;36.15;19.20;;;5.50;81.50;;;;;;5072432;28;20028;-70
2021/03/26 02:55:07;;;;;;;38.17;19.73;;;5.30;81.60;;;;;;5073503;28;20482;-68
2021/03/26 02:57:40;;;;;;;37.05;20.35;;;5.30;82.80;;;;;;5056996;28;20059;-69
2021/03/26 03:00:30;;;;;;;40.30;18.73;;;5.40;82.60;;;;;;5073405;28;20108;-69
2021/03/26 03:02:58;;;;;;;43.30;20.25;;;5.40;82.40;;;;;;5071931;28;20039;-69
2021/03/26 03:05:32;;;;;;;33.13;17.98;;;5.40;82.60;;;;;;5073174;28;20078;-69
2021/03/26 03:08:07;;;;;;;34.70;18.50;;;5.30;82.50;;;;;;5072996;28;20039;-69
2021/03/26 03:10:42;;;;;;;40.20;21.17;;;5.20;82.80;;;;;;5073282;28;20498;-69
2021/03/26 03:13:14;;;;;;;41.55;21.35;;;5.10;83.40;;;;;;5071768;28;20445;-68
2021/03/26 03:15:53;;;;;;;33.63;18.60;;;5.20;83.90;;;;;;5072940;28;20032;-68
2021/03/26 03:18:26;;;;;;;31.52;18.80;;;5.30;83.50;;;;;;5072878;28;20493;-69
2021/03/26 03:21:11;;;;;;;39.22;20.50;;;5.30;82.70;;;;;;5073381;28;20048;-69
2021/03/26 03:23:42;;;;;;;37.47;20.55;;;5.10;83.10;;;;;;5058604;28;20028;-69
2021/03/26 03:26:31;;;;;;;38.17;21.38;;;5.00;84.00;;;;;;5071896;28;20093;-68
2021/03/26 03:29:24;;;;;;;35.30;18.83;;;5.20;84.40;;;;;;5072925;28;20029;-69
2021/03/26 03:32:02;;;;;;;33.60;19.40;;;5.20;83.30;;;;;;5059702;28;20024;-70
2021/03/26 03:34:38;;;;;;;34.50;19.73;;;5.10;83.30;;;;;;5072771;28;20035;-70
2021/03/26 03:37:31;;;;;;;34.38;19.33;;;5.00;83.40;;;;;;5072518;28;20021;-70
2021/03/26 03:40:15;;;;;;;35.90;19.75;;;5.00;83.80;;;;;;5072900;28;20099;-69
2021/03/26 03:42:49;;;;;;;33.28;20.35;;;4.90;83.90;;;;;;5071478;28;20031;-70
2021/03/26 03:45:30;;;;;;;35.65;20.55;;;4.80;84.00;;;;;;5071269;28;20029;-70
2021/03/26 03:48:28;;;;;;;33.70;19.15;;;4.80;84.30;;;;;;5072454;28;20050;-69
2021/03/26 03:51:02;;;;;;;37.25;19.08;;;4.90;84.40;;;;;;5024774;28;20082;-69
2021/03/26 03:53:40;;;;;;;38.97;19.50;;;4.80;84.50;;;;;;5056537;28;20020;-69
2021/03/26 03:56:06;;;;;;;37.92;21.20;;;4.80;84.30;;;;;;5071915;28;20397;-69
2021/03/26 03:58:37;;;;;;;39.97;21.13;;;4.70;84.40;;;;;;5072177;28;20016;-69
2021/03/26 04:01:12;;;;;;;;;;;4.70;84.30;;;;;;5071203;28;20032;-70
2021/03/26 04:03:40;;;;;;;36.30;19.35;;;4.70;84.50;;;;;;5071728;28;20309;-69
2021/03/26 04:06:15;;;;;;;36.28;20.08;;;4.70;84.70;;;;;;5071583;28;20032;-69
2021/03/26 04:08:50;;;;;;;40.10;21.17;;;4.60;84.30;;;;;;5072008;28;20030;-69
2021/03/26 04:11:26;;;;;;;38.00;20.70;;;4.70;85.10;;;;;;5072231;28;20024;-69
2021/03/26 04:14:03;;;;;;;39.55;20.40;;;4.70;84.40;;;;;;5071925;28;20021;-69
2021/03/26 04:16:29;;;;;;;41.13;20.85;;;4.60;84.20;;;;;;5071513;28;20016;-69
2021/03/26 04:19:05;;;;;;;37.40;21.05;;;4.50;84.40;;;;;;5070563;28;20024;-69
2021/03/26 04:21:35;;;;;;;70.72;22.15;;;4.50;84.90;;;;;;5055383;28;20017;-69
2021/03/26 04:24:25;;;;;;;58.20;22.23;;;4.30;84.80;;;;;;5071694;28;20508;-69
2021/03/26 04:26:58;;;;;;;44.10;21.63;;;4.30;85.40;;;;;;5071503;28;20028;-69
2021/03/26 04:29:46;;;;;;;50.38;21.55;;;4.40;85.70;;;;;;5055615;28;20286;-69
2021/03/26 04:32:15;;;;;;;41.00;22.58;;;4.40;85.30;;;;;;5071608;28;20024;-69
2021/03/26 04:34:43;;;;;;;36.95;20.55;;;4.40;85.50;;;;;;5071965;28;20029;-69
2021/03/26 04:37:42;;;;;;;36.42;20.75;;;4.40;85.10;;;;;;5069916;28;20108;-69
2021/03/26 04:40:21;;;;;;;42.60;21.55;;;4.40;85.10;;;;;;5070261;28;20434;-69
2021/03/26 04:43:04;;;;;;;43.70;20.15;;;4.40;85.20;;;;;;5070566;28;20056;-69
2021/03/26 04:45:48;;;;;;;40.97;21.15;;;4.40;85.00;;;;;;5055855;28;20056;-69
2021/03/26 04:48:14;;;;;;;35.40;19.88;;;4.40;84.80;;;;;;5071406;28;20021;-69
2021/03/26 04:50:46;;;;;;;41.33;21.27;;;4.40;84.80;;;;;;5070103;28;20027;-68
2021/03/26 04:53:42;;;;;;;41.50;20.08;;;4.30;84.70;;;;;;5071704;28;20151;-68
2021/03/26 04:56:12;;;;;;;39.00;19.35;;;4.30;84.90;;;;;;5044241;28;20036;-69
2021/03/26 04:58:41;;;;;;;41.15;21.83;;;4.30;85.30;;;;;;5071443;28;20541;-68
2021/03/26 05:01:13;;;;;;;36.28;19.95;;;4.20;85.10;;;;;;5069974;28;20033;-68
2021/03/26 05:03:44;;;;;;;33.42;18.88;;;4.30;85.00;;;;;;5071461;28;20060;-69
2021/03/26 05:06:13;;;;;;;;;;;4.30;83.80;;;;;;5071531;28;20024;-68
2021/03/26 05:08:43;;;;;;;30.98;16.92;;;4.30;84.10;;;;;;5069457;28;20021;-69
2021/03/26 05:11:11;;;;;;;27.13;15.27;;;4.40;83.30;;;;;;5070723;28;20025;-69
2021/03/26 05:13:43;;;;;;;30.02;16.15;;;4.50;83.10;;;;;;5069793;28;20021;-68
2021/03/26 05:16:47;;;;;;;31.80;15.02;;;4.50;82.50;;;;;;5068283;28;20043;-68
2021/03/26 05:19:19;;;;;;;28.15;14.07;;;4.60;82.50;;;;;;5069155;28;20027;-69
2021/03/26 05:21:50;;;;;;;28.85;14.60;;;4.90;81.10;;;;;;5070807;28;20580;-69
2021/03/26 05:24:32;;;;;;;26.15;14.00;;;5.10;80.20;;;;;;5073611;28;20033;-70
2021/03/26 05:26:58;;;;;;;21.58;12.63;;;5.50;79.10;;;;;;5073538;28;20028;-70
2021/03/26 05:29:24;;;;;;;20.15;11.98;;;6.00;77.10;;;;;;5075187;28;20021;-70
2021/03/26 05:32:07;;;;;;;23.42;13.35;;;6.30;75.60;;;;;;5071602;28;20028;-68
2021/03/26 05:34:49;;;;;;;26.50;13.00;;;6.80;73.40;;;;;;5069815;28;20032;-69
2021/03/26 05:37:33;;;;;;;;;;;7.20;72.80;;;;;;5069743;28;20028;-70
2021/03/26 05:40:22;;;;;;;23.10;13.02;;;7.70;71.10;;;;;;5070884;28;19912;-68
2021/03/26 05:42:59;;;;;;;20.50;10.75;;;8.20;69.10;;;;;;5068764;28;20041;-69
2021/03/26 05:45:53;;;;;;;23.55;12.85;;;9.00;66.90;;;;;;5054801;28;20024;-69
2021/03/26 05:48:27;;;;;;;20.15;11.50;;;9.70;64.80;;;;;;5070159;28;20028;-68
2021/03/26 05:51:20;;;;;;;19.17;11.07;;;10.30;62.00;;;;;;5070316;28;20399;-68
2021/03/26 05:54:14;;;;;;;19.55;12.07;;;10.60;60.20;;;;;;5057702;28;20051;-68
2021/03/26 05:57:19;;;;;;;20.67;13.02;;;11.10;57.40;;;;;;5072565;28;20025;-69
2021/03/26 06:00:09;;;;;;;17.33;10.80;;;11.10;55.90;;;;;;5060867;28;20052;-68
2021/03/26 06:02:45;;;;;;;15.40;9.60;;;11.80;53.90;;;;;;5072824;28;20120;-71
2021/03/26 06:05:18;;;;;;;18.48;10.05;;;12.10;53.40;;;;;;5073940;28;20142;-71
2021/03/26 06:08:25;;;;;;;18.02;9.70;;;13.00;51.80;;;;;;5073912;28;20024;-70
2021/03/26 06:11:29;;;;;;;16.85;9.82;;;13.50;48.80;;;;;;5045149;28;20107;-70
2021/03/26 06:14:09;;;;;;;16.40;9.98;;;14.30;47.80;;;;;;5061874;28;20072;-71
2021/03/26 06:16:39;;;;;;;14.45;9.35;;;14.10;47.10;;;;;;5073482;28;20024;-70
2021/03/26 06:19:22;;;;;;;15.50;9.40;;;13.70;46.80;;;;;;5073889;28;20044;-72
2021/03/26 06:21:51;;;;;;;14.50;10.40;;;14.30;47.10;;;;;;5074056;28;20107;-70
2021/03/26 06:24:42;;;;;;;16.08;10.45;;;14.60;45.20;;;;;;5073677;28;20021;-70
2021/03/26 06:27:30;;;;;;;17.42;10.00;;;13.90;46.90;;;;;;5073465;28;20101;-70
2021/03/26 06:30:37;;;;;;;16.48;10.05;;;14.10;46.20;;;;;;5073672;28;20413;-69
2021/03/26 06:33:30;;;;;;;17.73;10.40;;;15.10;45.10;;;;;;5071787;28;20032;-68
2021/03/26 06:36:02;;;;;;;40.30;24.88;;;15.70;42.90;;;;;;5072000;28;20064;-68
2021/03/26 06:39:07;;;;;;;15.43;9.02;;;15.80;42.60;;;;;;5073476;28;20095;-72
2021/03/26 06:41:53;;;;;;;17.75;9.95;;;16.90;40.20;;;;;;5058457;28;20044;-72
2021/03/26 06:44:43;;;;;;;19.52;10.82;;;17.00;40.20;;;;;;5073396;28;20394;-72
2021/03/26 06:47:19;;;;;;;16.30;10.73;;;16.50;40.60;;;;;;5073339;28;20074;-71
2021/03/26 06:50:02;;;;;;;19.55;11.65;;;15.80;42.50;;;;;;5073808;28;20021;-69
2021/03/26 06:52:55;;;;;;;17.65;10.55;;;14.70;44.20;;;;;;5072001;28;20029;-71
2021/03/26 06:55:46;;;;;;;14.95;9.95;;;14.00;46.40;;;;;;5073525;28;20099;-69
2021/03/26 06:58:53;;;;;;;15.95;10.02;;;14.30;46.00;;;;;;5073693;28;20078;-71
2021/03/26 07:01:40;;;;;;;15.95;10.18;;;14.60;45.50;;;;;;5073556;28;20063;-71
2021/03/26 07:04:19;;;;;;;19.90;10.73;;;14.80;45.20;;;;;;5073861;28;20029;-70
2021/03/26 07:06:47;;;;;;;19.08;10.93;;;14.90;45.20;;;;;;5072257;28;20075;-72
2021/03/26 07:09:19;;;;;;;16.95;10.13;;;15.70;44.60;;;;;;5071019;28;20020;-68
2021/03/26 07:12:04;;;;;;;18.75;10.80;;;16.20;42.90;;;;;;5074805;28;20031;-71
2021/03/26 07:14:40;;;;;;;17.83;10.80;;;17.00;41.30;;;;;;5079132;28;20082;-69
2021/03/26 07:17:23;;;;;;;18.52;11.98;;;17.20;40.60;;;;;;5070899;28;20435;-72
2021/03/26 07:20:18;;;;;;;16.40;10.13;;;17.60;39.90;;;;;;5071161;28;20020;-69
2021/03/26 07:23:24;;;;;;;17.67;10.70;;;17.90;38.80;;;;;;5073038;28;20137;-73
2021/03/26 07:26:14;;;;;;;19.42;12.25;;;18.50;37.60;;;;;;5060219;28;20520;-73
2021/03/26 07:29:30;;;;;;;21.48;12.65;;;18.70;36.30;;;;;;5072628;28;20032;-71
2021/03/26 07:32:35;;;;;;;23.95;14.05;;;18.00;37.80;;;;;;5050701;28;20046;-71
2021/03/26 07:35:38;;;;;;;20.25;13.45;;;18.50;37.00;;;;;;5082515;22;20414;-70
2021/03/26 07:38:27;;;;;;;20.95;14.07;;;18.90;36.70;;;;;;5062528;28;20032;-70
2021/03/26 07:41:05;;;;;;;20.88;14.50;;;19.80;34.50;;;;;;5071043;28;20429;-72
2021/03/26 07:43:52;;;;;;;20.65;13.10;;;19.30;35.20;;;;;;5055270;28;20066;-68
2021/03/26 07:46:50;;;;;;;21.58;14.43;;;19.70;34.80;;;;;;5041855;28;20451;-68
2021/03/26 07:49:31;;;;;;;26.20;15.50;;;19.60;34.30;;;;;;5052359;28;20036;-68
2021/03/26 07:52:23;;;;;;;26.17;15.75;;;18.60;36.40;;;;;;5044306;28;20391;-67
2021/03/26 07:55:18;;;;;;;24.27;15.00;;;18.10;37.30;;;;;;5046962;28;20029;-68
2021/03/26 07:58:11;;;;;;;30.15;16.30;;;19.10;36.30;;;;;;5038803;28;20045;-68
2021/03/26 08:01:05;;;;;;;34.65;17.77;;;19.50;35.50;;;;;;5052516;28;20032;-69
2021/03/26 08:03:49;;;;;;;31.13;18.13;;;18.40;37.30;;;;;;5038408;28;20020;-68
2021/03/26 08:06:40;;;;;;;34.25;17.90;;;17.00;40.30;;;;;;5053819;28;20024;-72
2021/03/26 08:09:29;;;;;;;26.27;16.58;;;16.60;41.70;;;;;;5051932;28;20029;-72
2021/03/26 08:12:11;;;;;;;26.50;15.43;;;17.40;40.20;;;;;;5055290;28;20036;-71
2021/03/26 08:14:47;;;;;;;28.17;17.63;;;18.10;38.70;;;;;;5054422;28;20475;-72
2021/03/26 08:17:12;;;;;;;30.77;17.63;;;17.80;39.00;;;;;;5052222;28;20029;-70
2021/03/26 08:20:09;;;;;;;27.33;16.77;;;16.80;41.10;;;;;;5052150;28;20024;-71
2021/03/26 08:23:05;;;;;;;28.70;18.55;;;17.40;40.50;;;;;;5051934;28;20036;-69
2021/03/26 08:25:42;;;;;;;30.08;17.90;;;17.20;40.90;;;;;;5037211;28;20017;-72
2021/03/26 08:28:41;;;;;;;26.58;18.33;;;17.50;40.40;;;;;;5052018;28;20063;-71
2021/03/26 08:31:39;;;;;;;30.00;19.30;;;18.70;37.70;;;;;;5051911;28;20495;-72
2021/03/26 08:34:31;;;;;;;35.72;20.15;;;17.90;38.60;;;;;;5052161;28;20366;-71
2021/03/26 08:37:03;;;;;;;35.65;19.95;;;16.80;41.30;;;;;;5051540;28;20032;-72
2021/03/26 08:39:47;;;;;;;36.63;21.05;;;16.20;42.80;;;;;;5049712;28;20112;-72
2021/03/26 08:42:21;;;;;;;34.35;20.05;;;16.10;43.60;;;;;;5052171;28;20024;-71
2021/03/26 08:44:57;;;;;;;37.17;22.00;;;16.90;42.20;;;;;;5052694;28;20502;-72
2021/03/26 08:47:31;;;;;;;38.50;22.42;;;16.90;42.10;;;;;;5035636;28;20020;-72
2021/03/26 08:50:23;;;;;;;40.28;22.50;;;16.30;43.00;;;;;;5051938;28;20028;-71
2021/03/26 08:53:07;;;;;;;32.35;20.05;;;16.30;43.60;;;;;;5036425;28;20021;-70
2021/03/26 08:56:04;;;;;;;34.35;20.00;;;16.90;42.50;;;;;;5036936;28;20017;-69
2021/03/26 08:59:06;;;;;;;43.55;22.00;;;17.90;40.10;;;;;;5057528;28;20052;-71
2021/03/26 09:02:16;;;;;;;35.58;21.45;;;18.40;40.10;;;;;;5036523;28;20429;-69
2021/03/26 09:04:59;;;;;;;32.92;18.63;;;19.40;37.30;;;;;;5051500;28;20021;-69
2021/03/26 09:07:51;;;;;;;38.13;21.90;;;20.10;35.80;;;;;;5034830;28;20020;-70
2021/03/26 09:10:47;;;;;;;36.83;20.02;;;20.60;34.50;;;;;;5059222;28;20021;-68
2021/03/26 09:13:22;;;;;;;33.80;21.45;;;19.70;35.90;;;;;;5051395;28;20032;-68
2021/03/26 09:16:30;;;;;;;30.70;19.73;;;18.80;37.60;;;;;;5051059;28;20070;-73
2021/03/26 09:19:11;;;;;;;33.40;22.30;;;19.10;37.40;;;;;;5036449;28;20427;-68
2021/03/26 09:22:09;;;;;;;32.17;18.38;;;20.10;35.90;;;;;;5037088;28;20109;-69
2021/03/26 09:25:01;;;;;;;32.10;21.13;;;21.00;34.40;;;;;;5051175;28;20028;-71
2021/03/26 09:27:44;;;;;;;30.40;20.17;;;21.50;33.20;;;;;;5035822;28;20071;-71
2021/03/26 09:30:22;;;;;;;34.83;19.35;;;21.20;33.10;;;;;;5063621;28;20063;-72
2021/03/26 09:33:13;;;;;;;32.05;20.13;;;20.70;34.30;;;;;;5056076;28;20021;-71
2021/03/26 09:35:54;;;;;;;31.40;18.00;;;19.90;35.30;;;;;;5019347;28;20044;-73
2021/03/26 09:38:41;;;;;;;25.67;17.75;;;19.80;35.70;;;;;;5054910;28;20090;-73
2021/03/26 09:41:26;;;;;;;25.52;17.13;;;20.10;35.30;;;;;;5068450;28;20052;-71
2021/03/26 09:43:57;;;;;;;29.38;19.52;;;20.50;34.40;;;;;;5058204;28;20025;-72
2021/03/26 09:46:54;;;;;;;28.63;19.08;;;20.70;34.60;;;;;;5062227;28;20024;-71
2021/03/26 09:49:42;;;;;;;32.03;17.95;;;20.60;34.70;;;;;;5055402;28;20474;-71
2021/03/26 09:52:43;;;;;;;25.10;18.13;;;20.40;34.90;;;;;;5050139;28;20025;-71
2021/03/26 09:55:11;;;;;;;27.75;16.80;;;20.00;37.10;;;;;;5053025;28;20438;-71
2021/03/26 09:58:11;;;;;;;26.55;17.20;;;18.40;38.30;;;;;;5054447;28;20498;-71
2021/03/26 10:00:49;;;;;;;29.60;16.58;;;17.50;39.90;;;;;;5054600;28;20455;-71
2021/03/26 10:03:32;;;;;;;24.77;16.17;;;17.80;40.50;;;;;;5069013;28;20094;-71
2021/03/26 10:06:17;;;;;;;23.15;15.00;;;17.60;40.50;;;;;;5058441;28;20021;-72
2021/03/26 10:09:06;;;;;;;23.50;12.68;;;18.00;39.50;;;;;;5058893;28;20064;-72
2021/03/26 10:11:43;;;;;;;25.50;15.82;;;18.60;38.90;;;;;;5038965;28;20108;-71
2021/03/26 10:14:14;;;;;;;16.45;8.88;;;19.00;37.80;;;;;;5056119;28;20020;-72
2021/03/26 10:16:49;;;;;;;25.10;14.80;;;19.30;37.10;;;;;;5050370;28;20032;-72
2021/03/26 10:19:23;;;;;;;15.43;9.25;;;19.10;37.90;;;;;;5053790;28;20267;-71
2021/03/26 10:21:55;;;;;;;16.60;10.50;;;18.90;38.20;;;;;;5054952;28;20486;-71
2021/03/26 10:24:36;;;;;;;17.23;10.18;;;18.90;38.10;;;;;;5055355;28;20049;-72
2021/03/26 10:27:40;;;;;;;;;;;18.90;37.00;;;;;;5054737;28;20110;-71
2021/03/26 10:30:18;;;;;;;15.73;8.43;;;18.70;38.60;;;;;;4982487;28;20261;-72
2021/03/26 10:32:49;;;;;;;25.25;16.42;;;18.70;38.70;;;;;;4977990;28;20034;-72
2021/03/26 10:35:24;;;;;;;18.45;9.63;;;18.70;39.50;;;;;;5027286;28;20105;-72
2021/03/26 10:38:00;;;;;;;15.30;9.98;;;18.80;38.30;;;;;;5054288;28;20025;-72
2021/03/26 10:40:37;;;;;;;33.75;19.15;;;18.80;38.00;;;;;;5054466;28;20048;-72
2021/03/26 10:43:23;;;;;;;19.58;12.55;;;18.80;39.50;;;;;;5067566;28;20051;-71
2021/03/26 10:46:01;;;;;;;25.08;15.10;;;18.90;38.10;;;;;;5054899;28;20040;-72
2021/03/26 10:48:41;;;;;;;19.35;9.50;;;18.70;39.20;;;;;;5062248;28;20025;-71
2021/03/26 10:51:37;;;;;;;20.88;13.10;;;18.80;38.90;;;;;;5056724;28;20205;-71
2021/03/26 10:54:03;;;;;;;19.58;12.77;;;18.90;37.60;;;;;;5053680;28;20106;-72
2021/03/26 10:56:38;;;;;;;29.92;18.08;;;18.90;38.40;;;;;;5053813;28;20025;-72
2021/03/26 10:59:10;;;;;;;23.80;14.15;;;18.90;38.20;;;;;;5054900;28;20053;-71
2021/03/26 11:01:44;;;;;;;19.73;9.65;;;19.00;37.50;;;;;;5053454;28;20027;-72
2021/03/26 11:04:16;;;;;;;22.38;12.70;;;18.90;37.70;;;;;;5058950;28;20032;-71
2021/03/26 11:06:48;;;;;;;18.48;11.35;;;19.00;36.70;;;;;;5057495;28;20387;-70
2021/03/26 11:09:26;;;;;;;20.33;12.70;;;19.20;36.60;;;;;;5053535;28;20054;-70
2021/03/26 11:12:34;;;;;;;165.93;123.75;;;19.10;36.40;;;;;;5053139;28;20035;-72
2021/03/26 11:15:19;;;;;;;26.90;15.05;;;19.00;36.20;;;;;;5054270;28;20028;-72
2021/03/26 11:18:12;;;;;;;18.73;9.52;;;18.70;36.30;;;;;;5052855;28;20502;-72
2021/03/26 11:20:38;;;;;;;66.70;41.60;;;18.50;36.90;;;;;;5062420;28;20029;-70
2021/03/26 11:23:18;;;;;;;25.38;13.27;;;18.40;37.70;;;;;;5054221;28;20025;-70
2021/03/26 11:25:45;;;;;;;12.30;7.55;;;18.30;37.40;;;;;;5053015;28;20025;-71
2021/03/26 11:28:23;;;;;;;26.48;16.13;;;18.50;37.30;;;;;;5041829;28;20128;-71
2021/03/26 11:31:01;;;;;;;12.57;7.47;;;18.50;38.20;;;;;;5056508;28;20028;-72
2021/03/26 11:33:32;;;;;;;14.57;9.10;;;18.80;36.90;;;;;;5038497;28;20020;-72
2021/03/26 11:36:00;;;;;;;9.90;6.93;;;18.90;36.90;;;;;;5063924;28;20037;-72
2021/03/26 11:38:30;;;;;;;17.58;8.95;;;19.00;36.00;;;;;;5052922;28;20483;-72
2021/03/26 11:41:12;;;;;;;43.90;29.58;;;19.30;36.50;;;;;;5055115;28;20021;-71
2021/03/26 11:43:41;;;;;;;27.38;17.88;;;19.60;36.20;;;;;;5039789;28;20025;-70
2021/03/26 11:46:16;;;;;;;14.98;9.10;;;19.90;34.60;;;;;;5061451;28;20056;-72
2021/03/26 11:48:52;;;;;;;13.73;6.13;;;19.90;32.90;;;;;;5046095;28;20061;-72
2021/03/26 11:51:28;;;;;;;13.70;8.13;;;20.10;32.60;;;;;;5049560;28;20029;-71
2021/03/26 11:53:59;;;;;;;8.18;4.45;;;20.10;34.20;;;;;;5040431;28;20413;-71
2021/03/26 11:56:41;;;;;;;16.20;7.43;;;20.00;32.70;;;;;;5058749;28;20025;-71
2021/03/26 11:59:32;;;;;;;17.10;9.35;;;20.00;31.70;;;;;;5052291;28;20044;-71
2021/03/26 12:02:22;;;;;;;16.95;8.18;;;19.70;31.80;;;;;;5039722;28;20032;-72
2021/03/26 12:04:56;;;;;;;6.32;3.97;;;19.40;32.30;;;;;;5052131;28;20104;-71
2021/03/26 12:07:29;;;;;;;27.17;13.25;;;19.20;32.10;;;;;;5035487;28;20475;-71
2021/03/26 12:10:16;;;;;;;13.10;7.72;;;18.80;34.10;;;;;;5052903;28;20025;-71
2021/03/26 12:13:06;;;;;;;15.93;10.25;;;18.50;34.00;;;;;;5063036;28;20091;-71
2021/03/26 12:15:52;;;;;;;16.00;8.88;;;18.10;34.80;;;;;;5037688;28;20028;-72
2021/03/26 12:18:36;;;;;;;12.95;7.80;;;17.80;36.00;;;;;;5055894;28;20076;-72
2021/03/26 12:21:20;;;;;;;17.73;10.90;;;17.50;36.20;;;;;;5051822;28;20021;-72
2021/03/26 12:23:53;;;;;;;14.25;9.20;;;17.40;36.90;;;;;;5064027;28;20024;-71
2021/03/26 12:26:21;;;;;;;14.80;8.63;;;17.20;37.50;;;;;;5052503;28;20080;-72
2021/03/26 12:28:54;;;;;;;16.05;9.25;;;17.00;38.40;;;;;;5054508;28;20025;-72
2021/03/26 12:31:48;;;;;;;20.67;10.90;;;16.90;38.50;;;;;;5068029;28;20091;-67
2021/03/26 12:34:39;;;;;;;21.13;10.77;;;16.80;39.20;;;;;;5051501;28;20100;-67
2021/03/26 12:37:08;;;;;;;28.98;17.42;;;16.80;40.30;;;;;;5052134;28;20502;-66
2021/03/26 12:39:44;;;;;;;19.05;10.75;;;16.80;40.20;;;;;;5065081;28;20021;-67
2021/03/26 12:42:15;;;;;;;17.63;10.65;;;16.90;39.30;;;;;;5051695;28;20025;-67
2021/03/26 12:44:58;;;;;;;16.63;9.73;;;17.00;39.50;;;;;;5039610;28;20039;-71
2021/03/26 12:47:27;;;;;;;142.40;71.07;;;17.40;38.90;;;;;;5035512;28;20025;-69
2021/03/26 12:49:52;;;;;;;85.82;42.17;;;17.70;39.40;;;;;;5063453;28;20032;-70
2021/03/26 12:52:33;;;;;;;69.53;31.75;;;17.70;37.50;;;;;;5041886;28;20387;-69
2021/03/26 12:55:07;;;;;;;20.47;12.10;;;17.60;37.80;;;;;;5063823;28;20162;-69
2021/03/26 12:57:45;;;;;;;96.72;49.30;;;17.60;38.00;;;;;;5051432;28;20514;-72
2021/03/26 13:00:36;;;;;;;35.08;20.67;;;17.80;38.90;;;;;;5059941;28;20032;-70
2021/03/26 13:03:16;;;;;;;60.95;29.30;;;17.80;37.30;;;;;;5064019;28;20115;-69
2021/03/26 13:05:46;;;;;;;110.80;55.92;;;18.00;37.70;;;;;;5056742;28;20487;-70
2021/03/26 13:08:19;;;;;;;47.87;27.27;;;18.30;38.10;;;;;;5063271;28;20613;-70
2021/03/26 13:11:10;;;;;;;26.02;15.10;;;18.40;36.80;;;;;;5055323;28;20037;-71
2021/03/26 13:13:58;;;;;;;38.65;21.48;;;18.30;36.20;;;;;;5041215;28;20479;-70
2021/03/26 13:16:44;;;;;;;36.95;20.80;;;18.40;38.70;;;;;;5061885;28;20487;-69
2021/03/26 13:19:28;;;;;;;120.38;59.88;;;18.40;37.30;;;;;;5054631;28;20444;-70
2021/03/26 13:22:02;;;;;;;63.97;34.28;;;18.40;38.50;;;;;;5055364;28;20029;-70
2021/03/26 13:24:47;;;;;;;24.73;14.93;;;18.40;38.30;;;;;;5061493;28;20059;-69
2021/03/26 13:27:19;;;;;;;132.35;69.05;;;18.40;36.20;;;;;;5054940;28;20025;-69
2021/03/26 13:30:12;;;;;;;61.55;32.97;;;18.30;37.20;;;;;;5056994;28;20487;-70
2021/03/26 13:33:00;;;;;;;39.50;24.00;;;18.10;37.00;;;;;;5055100;28;20118;-71
2021/03/26 13:35:51;;;;;;;24.52;18.15;;;18.00;36.20;;;;;;5058676;22;20439;-69